createdAt,value
2023-05-09T00:00:39.680Z,25.20
2023-05-09T00:05:42.606Z,25.10
2023-05-09T00:10:46.778Z,25.10
2023-05-09T00:15:49.574Z,25.20
2023-05-09T00:20:54.474Z,25.10
2023-05-09T00:25:59.475Z,25.20
2023-05-09T00:31:02.314Z,25.10
2023-05-09T00:36:06.911Z,24.90
2023-05-09T00:41:11.128Z,25.10
2023-05-09T00:46:14.015Z,25.10
2023-05-09T00:51:16.952Z,25.10
2023-05-09T00:56:21.862Z,25.10
2023-05-09T01:01:24.976Z,25.00
2023-05-09T01:06:34.194Z,25.00
2023-05-09T01:11:43.224Z,25.00
2023-05-09T01:16:51.008Z,25.00
2023-05-09T01:21:54.034Z,25.00
2023-05-09T01:27:14.290Z,25.00
2023-05-09T01:32:20.251Z,24.90
2023-05-09T01:37:28.750Z,25.00
2023-05-09T01:42:36.699Z,25.00
2023-05-09T01:47:41.825Z,24.90
2023-05-09T01:52:45.753Z,24.90
2023-05-09T01:57:49.185Z,24.90
2023-05-09T02:02:53.522Z,24.90
2023-05-09T02:07:58.382Z,25.00
2023-05-09T02:13:01.336Z,24.90
2023-05-09T02:18:06.059Z,24.80
2023-05-09T02:23:09.366Z,24.90
2023-05-09T02:28:12.358Z,24.90
2023-05-09T02:33:16.624Z,24.80
2023-05-09T02:38:19.807Z,24.80
2023-05-09T02:43:23.014Z,24.80
2023-05-09T02:48:27.323Z,24.90
2023-05-09T02:53:30.128Z,24.80
2023-05-09T02:58:33.024Z,24.80
2023-05-09T03:03:38.041Z,24.80
2023-05-09T03:08:40.974Z,24.80
2023-05-09T03:13:43.766Z,24.80
2023-05-09T03:18:47.966Z,24.80
2023-05-09T03:23:50.772Z,24.80
2023-05-09T03:28:53.567Z,24.70
2023-05-09T03:33:57.760Z,24.70
2023-05-09T03:39:00.743Z,24.80
2023-05-09T03:44:03.875Z,24.80
2023-05-09T03:49:08.317Z,24.70
2023-05-09T03:54:11.148Z,24.70
2023-05-09T03:59:13.940Z,24.70
2023-05-09T04:04:18.139Z,24.70
2023-05-09T04:09:21.019Z,24.70
2023-05-09T04:14:23.818Z,24.70
2023-05-09T04:19:28.035Z,24.70
2023-05-09T04:24:31.751Z,24.70
2023-05-09T04:29:35.022Z,24.70
2023-05-09T04:34:39.203Z,24.60
2023-05-09T04:39:41.997Z,24.60
2023-05-09T04:44:44.795Z,24.60
2023-05-09T04:49:48.963Z,24.60
2023-05-09T04:54:51.970Z,24.60
2023-05-09T04:59:54.801Z,24.60
2023-05-09T05:05:11.042Z,24.70
2023-05-09T05:10:15.138Z,24.60
2023-05-09T05:15:19.466Z,24.60
2023-05-09T05:20:23.749Z,24.60
2023-05-09T05:25:26.739Z,24.60
2023-05-09T05:30:29.938Z,24.60
2023-05-09T05:35:35.517Z,24.60
2023-05-09T05:40:38.318Z,24.60
2023-05-09T05:45:41.322Z,24.60
2023-05-09T05:50:46.066Z,24.60
2023-05-09T05:55:49.129Z,24.60
2023-05-09T06:00:52.818Z,24.60
2023-05-09T06:05:59.659Z,24.70
2023-05-09T06:11:02.910Z,24.70
2023-05-09T06:16:18.421Z,24.70
2023-05-09T06:21:24.397Z,24.70
2023-05-09T06:26:27.266Z,24.70
2023-05-09T06:31:31.106Z,24.60
2023-05-09T06:36:35.765Z,24.70
2023-05-09T06:41:38.564Z,24.70
2023-05-09T06:46:41.489Z,24.70
2023-05-09T06:51:45.697Z,24.70
2023-05-09T06:56:48.793Z,24.80
2023-05-09T07:01:51.677Z,24.80
2023-05-09T07:06:55.883Z,24.80
2023-05-09T07:11:58.719Z,24.80
2023-05-09T07:17:18.149Z,24.80
2023-05-09T07:22:25.661Z,24.80
2023-05-09T07:27:28.598Z,24.80
2023-05-09T07:32:31.459Z,24.70
2023-05-09T07:37:35.877Z,24.80
2023-05-09T07:42:39.577Z,24.70
2023-05-09T07:47:42.498Z,24.80
2023-05-09T07:52:46.709Z,24.80
2023-05-09T07:57:49.497Z,24.90
2023-05-09T08:02:52.832Z,24.80
2023-05-09T08:07:59.720Z,24.80
2023-05-09T08:13:02.660Z,24.80
2023-05-09T08:18:06.411Z,24.80
2023-05-09T08:23:11.084Z,24.90
2023-05-09T08:28:14.055Z,24.90
2023-05-09T08:33:16.858Z,24.90
2023-05-09T08:38:21.639Z,24.90
2023-05-09T08:43:25.093Z,24.90
2023-05-09T08:48:29.305Z,24.90
2023-05-09T08:53:33.639Z,24.90
2023-05-09T08:58:36.733Z,24.90
2023-05-09T09:03:39.610Z,24.90
2023-05-09T09:08:44.913Z,25.00
2023-05-09T09:13:48.006Z,25.00
2023-05-09T09:18:52.956Z,25.10
2023-05-09T09:23:57.201Z,25.00
2023-05-09T09:29:00.007Z,25.00
2023-05-09T09:34:03.495Z,25.00
2023-05-09T09:39:09.106Z,25.10
2023-05-09T09:44:13.745Z,25.10
2023-05-09T09:49:18.454Z,25.10
2023-05-09T09:54:23.282Z,25.20
2023-05-09T09:59:27.468Z,25.30
2023-05-09T10:04:31.904Z,25.30
2023-05-09T10:09:38.006Z,25.20
2023-05-09T10:14:43.081Z,25.30
2023-05-09T10:19:47.604Z,25.30
2023-05-09T10:25:02.900Z,25.30
2023-05-09T10:30:10.300Z,25.30
2023-05-09T10:35:17.172Z,25.40
2023-05-09T10:40:21.897Z,25.30
2023-05-09T10:45:24.934Z,25.40
2023-05-09T10:50:27.858Z,25.40
2023-05-09T10:55:39.117Z,25.30
2023-05-09T11:00:42.527Z,25.40
2023-05-09T11:05:45.417Z,25.40
2023-05-09T11:10:49.839Z,25.40
2023-05-09T11:16:06.949Z,25.40
2023-05-09T11:21:10.322Z,25.50
2023-05-09T11:26:15.827Z,25.40
2023-05-09T11:31:19.782Z,25.40
2023-05-09T11:36:29.953Z,25.40
2023-05-09T11:41:40.638Z,25.50
2023-05-09T11:46:43.507Z,25.40
2023-05-09T11:51:46.366Z,25.40
2023-05-09T11:56:50.660Z,25.40
2023-05-09T12:01:54.518Z,25.40
2023-05-09T12:06:59.159Z,25.40
2023-05-09T12:12:10.878Z,25.30
2023-05-09T12:17:14.534Z,25.30
2023-05-09T12:22:17.403Z,25.30
2023-05-09T12:27:21.834Z,25.30
2023-05-09T12:32:31.598Z,25.40
2023-05-09T12:37:34.907Z,25.30
2023-05-09T12:42:39.350Z,25.30
2023-05-09T12:47:42.708Z,25.30
2023-05-09T12:52:58.504Z,25.30
2023-05-09T12:58:06.622Z,25.30
2023-05-09T13:03:21.942Z,25.40
2023-05-09T13:08:25.073Z,25.40
2023-05-09T13:13:31.658Z,25.30
2023-05-09T13:18:37.089Z,25.20
2023-05-09T13:23:41.877Z,25.30
2023-05-09T13:28:46.304Z,25.30
2023-05-09T13:33:51.564Z,25.20
2023-05-09T13:38:55.832Z,25.20
2023-05-09T13:44:00.854Z,25.20
2023-05-09T13:49:04.445Z,25.20
2023-05-09T13:54:12.501Z,25.10
2023-05-09T13:59:16.690Z,25.30
2023-05-09T14:04:19.543Z,25.10
2023-05-09T14:09:22.637Z,25.10
2023-05-09T14:14:26.871Z,25.10
2023-05-09T14:19:31.099Z,25.10
2023-05-09T14:24:35.940Z,25.10
2023-05-09T14:29:41.281Z,25.00
2023-05-09T14:34:45.217Z,25.10
2023-05-09T14:39:49.394Z,25.10
2023-05-09T14:44:53.530Z,25.00
2023-05-09T14:49:56.324Z,25.10
2023-05-09T14:54:59.753Z,25.00
2023-05-09T15:00:20.283Z,25.10
2023-05-09T15:05:25.007Z,25.00
2023-05-09T15:10:27.930Z,25.00
2023-05-09T15:15:32.134Z,24.90
2023-05-09T15:20:35.352Z,25.00
2023-05-09T15:25:39.285Z,24.90
2023-05-09T15:30:45.305Z,24.90
2023-05-09T15:35:50.052Z,24.90
2023-05-09T15:40:52.999Z,24.90
2023-05-09T15:45:57.155Z,24.80
2023-05-09T15:50:59.993Z,24.90
2023-05-09T15:56:03.503Z,24.90
2023-05-09T16:01:08.245Z,24.80
2023-05-09T16:06:12.792Z,24.80
2023-05-09T16:11:15.650Z,24.80
2023-05-09T16:16:20.202Z,24.80
2023-05-09T16:21:27.128Z,24.80
2023-05-09T16:26:30.126Z,24.80
2023-05-09T16:31:35.658Z,24.80
2023-05-09T16:36:39.421Z,24.80
2023-05-09T16:41:42.235Z,24.70
2023-05-09T16:46:47.095Z,24.70
2023-05-09T16:51:49.923Z,24.70
2023-05-09T16:56:53.517Z,24.60
2023-05-09T17:01:58.391Z,24.70
2023-05-09T17:07:01.254Z,24.70
2023-05-09T17:12:04.390Z,24.70
2023-05-09T17:17:08.828Z,24.70
2023-05-09T17:22:11.664Z,24.70
2023-05-09T17:27:15.003Z,24.70
2023-05-09T17:32:19.986Z,24.60
2023-05-09T17:37:23.621Z,24.70
2023-05-09T17:42:26.558Z,24.60
2023-05-09T17:47:31.123Z,24.70
2023-05-09T17:52:33.981Z,24.60
2023-05-09T17:57:36.828Z,24.60
2023-05-09T18:02:41.506Z,24.60
2023-05-09T18:07:44.377Z,24.50
2023-05-09T18:12:47.529Z,24.50
2023-05-09T18:17:53.772Z,24.60
2023-05-09T18:22:57.189Z,24.50
2023-05-09T18:27:59.974Z,24.50
2023-05-09T18:33:04.257Z,24.50
2023-05-09T18:38:07.113Z,24.50
2023-05-09T18:43:10.031Z,24.50
2023-05-09T18:48:14.276Z,24.40
2023-05-09T18:53:17.126Z,24.40
2023-05-09T18:58:21.234Z,24.40
2023-05-09T19:03:27.276Z,24.50
2023-05-09T19:08:30.666Z,24.50
2023-05-09T19:13:37.105Z,24.40
2023-05-09T19:18:44.788Z,24.50
2023-05-09T19:23:49.157Z,24.40
2023-05-09T19:28:53.283Z,24.40
2023-05-09T19:33:58.156Z,24.30
2023-05-09T19:39:01.073Z,24.40
2023-05-09T19:44:03.969Z,24.40
2023-05-09T19:49:09.052Z,24.40
2023-05-09T19:54:12.020Z,24.40
2023-05-09T19:59:14.821Z,24.40
2023-05-09T20:04:21.668Z,24.30
2023-05-09T20:09:25.369Z,24.40
2023-05-09T20:14:28.378Z,24.40
2023-05-09T20:19:33.107Z,24.30
2023-05-09T20:24:36.038Z,24.30
2023-05-09T20:29:38.902Z,24.30
2023-05-09T20:34:43.054Z,24.30
2023-05-09T20:39:46.945Z,24.30
2023-05-09T20:44:51.515Z,24.30
2023-05-09T20:49:58.118Z,24.30
2023-05-09T20:55:01.943Z,24.30
2023-05-09T21:00:07.635Z,24.30
2023-05-09T21:05:11.942Z,24.40
2023-05-09T21:10:15.062Z,24.30
2023-05-09T21:15:18.261Z,24.30
2023-05-09T21:20:23.110Z,24.20
2023-05-09T21:25:26.272Z,24.30
2023-05-09T21:30:29.113Z,24.20
2023-05-09T21:35:33.397Z,24.20
2023-05-09T21:40:36.205Z,24.30
2023-05-09T21:45:38.995Z,24.30
2023-05-09T21:50:44.787Z,24.30
2023-05-09T21:55:47.641Z,24.30
2023-05-09T22:00:50.573Z,24.30
2023-05-09T22:05:54.754Z,24.20
2023-05-09T22:10:57.558Z,24.20
2023-05-09T22:16:00.621Z,24.30
2023-05-09T22:21:05.309Z,24.20
2023-05-09T22:26:08.856Z,24.30
2023-05-09T22:31:11.656Z,24.20
2023-05-09T22:36:15.930Z,24.10
2023-05-09T22:41:18.731Z,24.20
2023-05-09T22:46:21.581Z,24.20
2023-05-09T22:51:26.219Z,24.20
2023-05-09T22:56:29.153Z,24.10
2023-05-09T23:01:32.370Z,24.10
2023-05-09T23:06:36.622Z,24.20
2023-05-09T23:11:39.479Z,24.10
2023-05-09T23:16:42.395Z,24.20
2023-05-09T23:21:46.628Z,24.20
2023-05-09T23:26:49.407Z,24.10
2023-05-09T23:31:52.197Z,24.20
2023-05-09T23:36:56.532Z,24.20
2023-05-09T23:42:00.067Z,24.20
2023-05-09T23:47:02.954Z,24.10
2023-05-09T23:52:09.664Z,24.10
2023-05-09T23:57:12.482Z,24.10
